sensor_id;sensor_type;location;lat;lon;timestamp;P1;durP1;ratioP1;P2;durP2;ratioP2
66593;SDS011;53450;42.584;23.366;2024-03-07T00:02:21;8.13;;;7.28;;
66593;SDS011;53450;42.584;23.366;2024-03-07T00:05:31;8.63;;;7.22;;
66593;SDS011;53450;42.584;23.366;2024-03-07T00:08:09;8.00;;;6.43;;
66593;SDS011;53450;42.584;23.366;2024-03-07T00:10:41;10.30;;;7.03;;
66593;SDS011;53450;42.584;23.366;2024-03-07T00:13:09;7.68;;;6.28;;
66593;SDS011;53450;42.584;23.366;2024-03-07T00:15:37;8.23;;;6.45;;
66593;SDS011;53450;42.584;23.366;2024-03-07T00:18:05;6.50;;;5.80;;
66593;SDS011;53450;42.584;23.366;2024-03-07T00:20:38;6.70;;;5.97;;
66593;SDS011;53450;42.584;23.366;2024-03-07T00:23:21;6.85;;;5.45;;
66593;SDS011;53450;42.584;23.366;2024-03-07T00:25:49;6.80;;;5.75;;
66593;SDS011;53450;42.584;23.366;2024-03-07T00:28:15;5.95;;;5.35;;
66593;SDS011;53450;42.584;23.366;2024-03-07T00:30:44;8.68;;;5.38;;
66593;SDS011;53450;42.584;23.366;2024-03-07T00:33:16;6.55;;;5.95;;
66593;SDS011;53450;42.584;23.366;2024-03-07T00:35:50;7.65;;;6.25;;
66593;SDS011;53450;42.584;23.366;2024-03-07T00:38:15;8.02;;;5.90;;
66593;SDS011;53450;42.584;23.366;2024-03-07T00:40:51;7.90;;;7.07;;
66593;SDS011;53450;42.584;23.366;2024-03-07T00:43:22;8.23;;;6.85;;
66593;SDS011;53450;42.584;23.366;2024-03-07T00:45:50;8.68;;;7.68;;
66593;SDS011;53450;42.584;23.366;2024-03-07T00:48:16;10.00;;;7.40;;
66593;SDS011;53450;42.584;23.366;2024-03-07T00:50:44;16.38;;;11.63;;
66593;SDS011;53450;42.584;23.366;2024-03-07T00:53:10;30.05;;;16.75;;
66593;SDS011;53450;42.584;23.366;2024-03-07T00:55:41;14.32;;;10.07;;
66593;SDS011;53450;42.584;23.366;2024-03-07T00:58:09;11.98;;;8.77;;
66593;SDS011;53450;42.584;23.366;2024-03-07T01:00:56;10.43;;;7.90;;
66593;SDS011;53450;42.584;23.366;2024-03-07T01:03:22;9.07;;;7.82;;
66593;SDS011;53450;42.584;23.366;2024-03-07T01:05:51;11.27;;;7.93;;
66593;SDS011;53450;42.584;23.366;2024-03-07T01:08:39;10.68;;;7.68;;
66593;SDS011;53450;42.584;23.366;2024-03-07T01:11:07;11.93;;;8.27;;
66593;SDS011;53450;42.584;23.366;2024-03-07T01:13:45;19.00;;;11.18;;
66593;SDS011;53450;42.584;23.366;2024-03-07T01:16:11;13.70;;;9.13;;
66593;SDS011;53450;42.584;23.366;2024-03-07T01:18:44;15.32;;;8.90;;
66593;SDS011;53450;42.584;23.366;2024-03-07T01:21:13;8.32;;;7.10;;
66593;SDS011;53450;42.584;23.366;2024-03-07T01:23:52;9.98;;;6.97;;
66593;SDS011;53450;42.584;23.366;2024-03-07T01:26:27;7.85;;;6.18;;
66593;SDS011;53450;42.584;23.366;2024-03-07T01:29:01;9.38;;;5.38;;
66593;SDS011;53450;42.584;23.366;2024-03-07T01:33:59;5.35;;;4.25;;
66593;SDS011;53450;42.584;23.366;2024-03-07T01:36:27;4.85;;;3.95;;
66593;SDS011;53450;42.584;23.366;2024-03-07T01:38:56;3.95;;;3.60;;
66593;SDS011;53450;42.584;23.366;2024-03-07T01:41:29;2.70;;;2.50;;
66593;SDS011;53450;42.584;23.366;2024-03-07T01:44:04;2.57;;;2.37;;
66593;SDS011;53450;42.584;23.366;2024-03-07T01:46:33;2.50;;;2.30;;
66593;SDS011;53450;42.584;23.366;2024-03-07T01:48:59;3.23;;;2.10;;
66593;SDS011;53450;42.584;23.366;2024-03-07T01:51:25;2.30;;;2.10;;
66593;SDS011;53450;42.584;23.366;2024-03-07T01:53:51;3.93;;;2.60;;
66593;SDS011;53450;42.584;23.366;2024-03-07T01:56:19;5.50;;;2.87;;
66593;SDS011;53450;42.584;23.366;2024-03-07T01:58:48;3.17;;;1.73;;
66593;SDS011;53450;42.584;23.366;2024-03-07T02:01:17;2.07;;;1.90;;
66593;SDS011;53450;42.584;23.366;2024-03-07T02:03:46;2.80;;;2.50;;
66593;SDS011;53450;42.584;23.366;2024-03-07T02:06:12;2.30;;;1.53;;
66593;SDS011;53450;42.584;23.366;2024-03-07T02:08:39;4.20;;;1.90;;
66593;SDS011;53450;42.584;23.366;2024-03-07T02:11:09;2.60;;;1.60;;
66593;SDS011;53450;42.584;23.366;2024-03-07T02:13:39;3.13;;;2.13;;
66593;SDS011;53450;42.584;23.366;2024-03-07T02:16:09;4.63;;;2.73;;
66593;SDS011;53450;42.584;23.366;2024-03-07T02:18:37;5.53;;;2.50;;
66593;SDS011;53450;42.584;23.366;2024-03-07T02:21:11;6.17;;;4.27;;
66593;SDS011;53450;42.584;23.366;2024-03-07T02:23:50;5.83;;;2.70;;
66593;SDS011;53450;42.584;23.366;2024-03-07T02:26:17;3.33;;;3.00;;
66593;SDS011;53450;42.584;23.366;2024-03-07T02:28:43;3.97;;;2.27;;
66593;SDS011;53450;42.584;23.366;2024-03-07T02:31:18;3.60;;;2.20;;
66593;SDS011;53450;42.584;23.366;2024-03-07T02:33:53;2.37;;;1.90;;
66593;SDS011;53450;42.584;23.366;2024-03-07T02:36:33;2.40;;;1.90;;
66593;SDS011;53450;42.584;23.366;2024-03-07T02:39:23;1.80;;;1.70;;
66593;SDS011;53450;42.584;23.366;2024-03-07T02:41:55;1.77;;;1.60;;
66593;SDS011;53450;42.584;23.366;2024-03-07T02:44:30;1.80;;;1.60;;
66593;SDS011;53450;42.584;23.366;2024-03-07T02:47:00;2.40;;;2.13;;
66593;SDS011;53450;42.584;23.366;2024-03-07T02:49:29;3.70;;;2.33;;
66593;SDS011;53450;42.584;23.366;2024-03-07T02:51:59;3.80;;;2.33;;
66593;SDS011;53450;42.584;23.366;2024-03-07T02:54:36;1.47;;;1.30;;
66593;SDS011;53450;42.584;23.366;2024-03-07T02:57:08;3.60;;;1.40;;
66593;SDS011;53450;42.584;23.366;2024-03-07T02:59:36;0.93;;;0.90;;
66593;SDS011;53450;42.584;23.366;2024-03-07T03:02:05;1.40;;;1.30;;
66593;SDS011;53450;42.584;23.366;2024-03-07T03:04:31;1.40;;;0.90;;
66593;SDS011;53450;42.584;23.366;2024-03-07T03:06:58;1.40;;;1.30;;
66593;SDS011;53450;42.584;23.366;2024-03-07T03:09:26;1.17;;;1.10;;
66593;SDS011;53450;42.584;23.366;2024-03-07T03:11:53;0.90;;;0.90;;
66593;SDS011;53450;42.584;23.366;2024-03-07T03:14:23;0.93;;;0.93;;
66593;SDS011;53450;42.584;23.366;2024-03-07T03:16:51;0.87;;;0.87;;
66593;SDS011;53450;42.584;23.366;2024-03-07T03:19:24;1.33;;;1.20;;
66593;SDS011;53450;42.584;23.366;2024-03-07T03:21:57;0.77;;;0.77;;
66593;SDS011;53450;42.584;23.366;2024-03-07T03:24:25;1.37;;;1.30;;
66593;SDS011;53450;42.584;23.366;2024-03-07T03:26:52;3.07;;;2.63;;
66593;SDS011;53450;42.584;23.366;2024-03-07T03:29:20;1.17;;;0.90;;
66593;SDS011;53450;42.584;23.366;2024-03-07T03:31:48;0.87;;;0.87;;
66593;SDS011;53450;42.584;23.366;2024-03-07T03:34:14;0.57;;;0.57;;
66593;SDS011;53450;42.584;23.366;2024-03-07T03:36:42;0.80;;;0.80;;
66593;SDS011;53450;42.584;23.366;2024-03-07T03:39:13;2.70;;;0.90;;
66593;SDS011;53450;42.584;23.366;2024-03-07T03:41:42;3.70;;;0.97;;
66593;SDS011;53450;42.584;23.366;2024-03-07T03:44:08;0.87;;;0.87;;
66593;SDS011;53450;42.584;23.366;2024-03-07T03:46:37;1.00;;;1.00;;
66593;SDS011;53450;42.584;23.366;2024-03-07T03:49:05;1.23;;;1.03;;
66593;SDS011;53450;42.584;23.366;2024-03-07T03:51:31;1.37;;;1.27;;
66593;SDS011;53450;42.584;23.366;2024-03-07T03:53:57;1.20;;;1.10;;
66593;SDS011;53450;42.584;23.366;2024-03-07T03:56:23;2.37;;;2.07;;
66593;SDS011;53450;42.584;23.366;2024-03-07T03:58:52;3.70;;;1.73;;
66593;SDS011;53450;42.584;23.366;2024-03-07T04:01:27;0.80;;;0.80;;
66593;SDS011;53450;42.584;23.366;2024-03-07T04:03:56;1.40;;;1.30;;
66593;SDS011;53450;42.584;23.366;2024-03-07T04:06:27;0.93;;;0.93;;
66593;SDS011;53450;42.584;23.366;2024-03-07T04:11:22;1.10;;;1.10;;
66593;SDS011;53450;42.584;23.366;2024-03-07T04:13:51;2.10;;;1.90;;
66593;SDS011;53450;42.584;23.366;2024-03-07T04:16:20;1.60;;;1.50;;
66593;SDS011;53450;42.584;23.366;2024-03-07T04:18:51;2.00;;;1.90;;
66593;SDS011;53450;42.584;23.366;2024-03-07T04:21:17;1.90;;;1.80;;
66593;SDS011;53450;42.584;23.366;2024-03-07T04:23:42;1.63;;;1.53;;
66593;SDS011;53450;42.584;23.366;2024-03-07T04:26:11;2.83;;;1.83;;
66593;SDS011;53450;42.584;23.366;2024-03-07T04:28:41;1.70;;;1.60;;
66593;SDS011;53450;42.584;23.366;2024-03-07T04:31:20;6.28;;;3.30;;
66593;SDS011;53450;42.584;23.366;2024-03-07T04:33:54;2.13;;;2.00;;
66593;SDS011;53450;42.584;23.366;2024-03-07T04:36:25;1.70;;;1.60;;
66593;SDS011;53450;42.584;23.366;2024-03-07T04:38:51;3.27;;;2.97;;
66593;SDS011;53450;42.584;23.366;2024-03-07T04:41:24;1.77;;;1.63;;
66593;SDS011;53450;42.584;23.366;2024-03-07T04:44:00;3.27;;;1.90;;
66593;SDS011;53450;42.584;23.366;2024-03-07T04:46:29;1.97;;;1.80;;
66593;SDS011;53450;42.584;23.366;2024-03-07T04:49:00;7.97;;;3.47;;
66593;SDS011;53450;42.584;23.366;2024-03-07T04:53:55;2.47;;;2.27;;
66593;SDS011;53450;42.584;23.366;2024-03-07T04:56:28;2.77;;;2.57;;
66593;SDS011;53450;42.584;23.366;2024-03-07T04:58:59;9.88;;;8.27;;
66593;SDS011;53450;42.584;23.366;2024-03-07T05:01:26;14.07;;;9.20;;
66593;SDS011;53450;42.584;23.366;2024-03-07T05:03:55;5.47;;;4.07;;
66593;SDS011;53450;42.584;23.366;2024-03-07T05:06:29;2.97;;;2.77;;
66593;SDS011;53450;42.584;23.366;2024-03-07T05:08:54;6.37;;;4.60;;
66593;SDS011;53450;42.584;23.366;2024-03-07T05:11:23;118.87;;;45.47;;
66593;SDS011;53450;42.584;23.366;2024-03-07T05:13:49;85.37;;;40.50;;
66593;SDS011;53450;42.584;23.366;2024-03-07T05:16:17;70.27;;;31.67;;
66593;SDS011;53450;42.584;23.366;2024-03-07T05:18:54;72.17;;;31.00;;
66593;SDS011;53450;42.584;23.366;2024-03-07T05:21:39;24.47;;;10.87;;
66593;SDS011;53450;42.584;23.366;2024-03-07T05:24:09;8.57;;;4.90;;
66593;SDS011;53450;42.584;23.366;2024-03-07T05:26:48;2.90;;;2.63;;
66593;SDS011;53450;42.584;23.366;2024-03-07T05:29:19;2.13;;;2.03;;
66593;SDS011;53450;42.584;23.366;2024-03-07T05:31:47;2.60;;;2.40;;
66593;SDS011;53450;42.584;23.366;2024-03-07T05:34:18;4.55;;;3.40;;
66593;SDS011;53450;42.584;23.366;2024-03-07T05:37:09;8.87;;;6.27;;
66593;SDS011;53450;42.584;23.366;2024-03-07T05:39:49;8.93;;;5.93;;
66593;SDS011;53450;42.584;23.366;2024-03-07T05:42:17;8.35;;;5.95;;
66593;SDS011;53450;42.584;23.366;2024-03-07T05:44:53;10.27;;;7.80;;
66593;SDS011;53450;42.584;23.366;2024-03-07T05:47:19;15.90;;;11.60;;
66593;SDS011;53450;42.584;23.366;2024-03-07T05:49:45;21.10;;;14.10;;
66593;SDS011;53450;42.584;23.366;2024-03-07T05:52:10;6.73;;;5.80;;
66593;SDS011;53450;42.584;23.366;2024-03-07T05:54:39;3.40;;;3.03;;
66593;SDS011;53450;42.584;23.366;2024-03-07T05:57:05;4.67;;;2.57;;
66593;SDS011;53450;42.584;23.366;2024-03-07T05:59:33;2.87;;;2.63;;
66593;SDS011;53450;42.584;23.366;2024-03-07T06:02:12;7.70;;;5.00;;
66593;SDS011;53450;42.584;23.366;2024-03-07T06:04:41;4.93;;;4.32;;
66593;SDS011;53450;42.584;23.366;2024-03-07T06:07:10;4.50;;;4.10;;
66593;SDS011;53450;42.584;23.366;2024-03-07T06:09:46;6.10;;;4.00;;
66593;SDS011;53450;42.584;23.366;2024-03-07T06:12:30;3.90;;;3.60;;
66593;SDS011;53450;42.584;23.366;2024-03-07T06:14:58;3.75;;;3.40;;
66593;SDS011;53450;42.584;23.366;2024-03-07T06:17:26;2.80;;;2.53;;
66593;SDS011;53450;42.584;23.366;2024-03-07T06:19:54;2.43;;;2.30;;
66593;SDS011;53450;42.584;23.366;2024-03-07T06:22:22;3.57;;;3.27;;
66593;SDS011;53450;42.584;23.366;2024-03-07T06:25:00;2.60;;;2.40;;
66593;SDS011;53450;42.584;23.366;2024-03-07T06:27:31;2.57;;;2.30;;
66593;SDS011;53450;42.584;23.366;2024-03-07T06:30:02;2.40;;;2.20;;
66593;SDS011;53450;42.584;23.366;2024-03-07T06:32:34;3.00;;;2.80;;
66593;SDS011;53450;42.584;23.366;2024-03-07T06:35:21;6.50;;;3.83;;
66593;SDS011;53450;42.584;23.366;2024-03-07T06:38:27;6.97;;;5.30;;
66593;SDS011;53450;42.584;23.366;2024-03-07T06:40:52;4.13;;;3.10;;
66593;SDS011;53450;42.584;23.366;2024-03-07T06:43:18;4.13;;;2.80;;
66593;SDS011;53450;42.584;23.366;2024-03-07T06:45:47;5.97;;;5.37;;
66593;SDS011;53450;42.584;23.366;2024-03-07T06:48:25;5.07;;;4.67;;
66593;SDS011;53450;42.584;23.366;2024-03-07T06:50:59;5.93;;;5.07;;
66593;SDS011;53450;42.584;23.366;2024-03-07T06:53:30;8.43;;;5.97;;
66593;SDS011;53450;42.584;23.366;2024-03-07T06:55:58;6.10;;;5.50;;
66593;SDS011;53450;42.584;23.366;2024-03-07T06:58:27;5.80;;;5.20;;
66593;SDS011;53450;42.584;23.366;2024-03-07T07:00:55;13.38;;;10.20;;
66593;SDS011;53450;42.584;23.366;2024-03-07T07:03:25;7.00;;;6.10;;
66593;SDS011;53450;42.584;23.366;2024-03-07T07:05:54;12.50;;;8.15;;
66593;SDS011;53450;42.584;23.366;2024-03-07T07:08:25;6.77;;;5.70;;
66593;SDS011;53450;42.584;23.366;2024-03-07T07:10:55;8.43;;;5.33;;
66593;SDS011;53450;42.584;23.366;2024-03-07T07:13:27;5.23;;;4.73;;
66593;SDS011;53450;42.584;23.366;2024-03-07T07:15:52;11.65;;;6.35;;
66593;SDS011;53450;42.584;23.366;2024-03-07T07:18:21;5.32;;;4.30;;
66593;SDS011;53450;42.584;23.366;2024-03-07T07:20:49;8.27;;;6.37;;
66593;SDS011;53450;42.584;23.366;2024-03-07T07:23:20;3.90;;;2.67;;
66593;SDS011;53450;42.584;23.366;2024-03-07T07:25:57;3.90;;;2.60;;
66593;SDS011;53450;42.584;23.366;2024-03-07T07:28:31;5.05;;;3.78;;
66593;SDS011;53450;42.584;23.366;2024-03-07T07:30:56;6.70;;;4.00;;
66593;SDS011;53450;42.584;23.366;2024-03-07T07:33:22;4.25;;;3.25;;
66593;SDS011;53450;42.584;23.366;2024-03-07T07:38:39;7.20;;;5.03;;
66593;SDS011;53450;42.584;23.366;2024-03-07T07:41:07;6.55;;;4.32;;
66593;SDS011;53450;42.584;23.366;2024-03-07T07:43:41;20.92;;;13.15;;
66593;SDS011;53450;42.584;23.366;2024-03-07T07:46:16;16.00;;;9.38;;
66593;SDS011;53450;42.584;23.366;2024-03-07T07:48:50;73.63;;;29.10;;
66593;SDS011;53450;42.584;23.366;2024-03-07T07:51:23;19.05;;;8.52;;
66593;SDS011;53450;42.584;23.366;2024-03-07T07:53:59;14.27;;;8.27;;
66593;SDS011;53450;42.584;23.366;2024-03-07T07:56:29;17.42;;;7.95;;
66593;SDS011;53450;42.584;23.366;2024-03-07T07:58:57;3.42;;;2.13;;
66593;SDS011;53450;42.584;23.366;2024-03-07T08:01:25;2.78;;;1.85;;
66593;SDS011;53450;42.584;23.366;2024-03-07T08:03:53;3.40;;;2.67;;
66593;SDS011;53450;42.584;23.366;2024-03-07T08:06:27;3.38;;;2.85;;
66593;SDS011;53450;42.584;23.366;2024-03-07T08:08:55;2.85;;;1.92;;
66593;SDS011;53450;42.584;23.366;2024-03-07T08:11:24;1.60;;;1.50;;
66593;SDS011;53450;42.584;23.366;2024-03-07T08:14:00;3.90;;;1.73;;
66593;SDS011;53450;42.584;23.366;2024-03-07T08:16:31;1.48;;;1.38;;
66593;SDS011;53450;42.584;23.366;2024-03-07T08:19:01;1.55;;;1.45;;
66593;SDS011;53450;42.584;23.366;2024-03-07T08:21:34;1.70;;;1.60;;
66593;SDS011;53450;42.584;23.366;2024-03-07T08:24:02;1.90;;;1.80;;
66593;SDS011;53450;42.584;23.366;2024-03-07T08:26:33;10.38;;;5.57;;
66593;SDS011;53450;42.584;23.366;2024-03-07T08:28:59;8.15;;;5.65;;
66593;SDS011;53450;42.584;23.366;2024-03-07T08:31:27;23.05;;;12.57;;
66593;SDS011;53450;42.584;23.366;2024-03-07T08:36:30;16.15;;;8.65;;
66593;SDS011;53450;42.584;23.366;2024-03-07T08:38:57;10.85;;;7.72;;
66593;SDS011;53450;42.584;23.366;2024-03-07T08:41:28;12.38;;;7.07;;
66593;SDS011;53450;42.584;23.366;2024-03-07T08:43:54;11.40;;;7.50;;
66593;SDS011;53450;42.584;23.366;2024-03-07T08:46:22;11.73;;;8.98;;
66593;SDS011;53450;42.584;23.366;2024-03-07T08:48:48;10.82;;;7.13;;
66593;SDS011;53450;42.584;23.366;2024-03-07T08:51:15;9.55;;;7.95;;
66593;SDS011;53450;42.584;23.366;2024-03-07T08:53:46;26.55;;;15.27;;
66593;SDS011;53450;42.584;23.366;2024-03-07T08:56:14;21.42;;;11.93;;
66593;SDS011;53450;42.584;23.366;2024-03-07T08:58:40;27.60;;;15.57;;
66593;SDS011;53450;42.584;23.366;2024-03-07T09:01:11;13.48;;;9.73;;
66593;SDS011;53450;42.584;23.366;2024-03-07T09:03:47;8.82;;;6.47;;
66593;SDS011;53450;42.584;23.366;2024-03-07T09:06:13;10.80;;;6.32;;
66593;SDS011;53450;42.584;23.366;2024-03-07T09:08:42;15.65;;;10.57;;
66593;SDS011;53450;42.584;23.366;2024-03-07T09:11:20;14.65;;;9.10;;
66593;SDS011;53450;42.584;23.366;2024-03-07T09:13:46;8.07;;;6.72;;
66593;SDS011;53450;42.584;23.366;2024-03-07T09:16:25;9.57;;;6.75;;
66593;SDS011;53450;42.584;23.366;2024-03-07T09:18:58;7.38;;;6.03;;
66593;SDS011;53450;42.584;23.366;2024-03-07T09:21:26;6.78;;;5.18;;
66593;SDS011;53450;42.584;23.366;2024-03-07T09:26:50;10.48;;;8.27;;
66593;SDS011;53450;42.584;23.366;2024-03-07T09:29:26;7.05;;;6.30;;
66593;SDS011;53450;42.584;23.366;2024-03-07T09:35:15;8.20;;;6.00;;
66593;SDS011;53450;42.584;23.366;2024-03-07T09:37:43;9.02;;;5.63;;
66593;SDS011;53450;42.584;23.366;2024-03-07T09:40:15;5.63;;;5.10;;
66593;SDS011;53450;42.584;23.366;2024-03-07T09:42:50;6.25;;;5.65;;
66593;SDS011;53450;42.584;23.366;2024-03-07T09:45:28;7.32;;;4.80;;
66593;SDS011;53450;42.584;23.366;2024-03-07T09:48:21;6.35;;;4.75;;
66593;SDS011;53450;42.584;23.366;2024-03-07T09:50:53;5.72;;;5.00;;
66593;SDS011;53450;42.584;23.366;2024-03-07T09:53:26;6.70;;;4.78;;
66593;SDS011;53450;42.584;23.366;2024-03-07T09:55:55;7.20;;;4.95;;
66593;SDS011;53450;42.584;23.366;2024-03-07T09:58:25;5.80;;;5.28;;
66593;SDS011;53450;42.584;23.366;2024-03-07T10:00:55;10.93;;;7.57;;
66593;SDS011;53450;42.584;23.366;2024-03-07T10:03:23;6.35;;;5.03;;
66593;SDS011;53450;42.584;23.366;2024-03-07T10:05:54;6.97;;;5.40;;
66593;SDS011;53450;42.584;23.366;2024-03-07T10:08:23;5.75;;;5.25;;
66593;SDS011;53450;42.584;23.366;2024-03-07T10:11:02;6.95;;;5.65;;
66593;SDS011;53450;42.584;23.366;2024-03-07T10:16:32;11.32;;;9.27;;
66593;SDS011;53450;42.584;23.366;2024-03-07T10:19:03;10.85;;;6.43;;
66593;SDS011;53450;42.584;23.366;2024-03-07T10:21:33;5.53;;;5.03;;
66593;SDS011;53450;42.584;23.366;2024-03-07T10:24:07;7.32;;;5.40;;
66593;SDS011;53450;42.584;23.366;2024-03-07T10:26:53;7.25;;;5.50;;
66593;SDS011;53450;42.584;23.366;2024-03-07T10:29:46;9.15;;;5.68;;
66593;SDS011;53450;42.584;23.366;2024-03-07T10:32:26;8.48;;;6.13;;
66593;SDS011;53450;42.584;23.366;2024-03-07T10:34:54;5.50;;;5.00;;
66593;SDS011;53450;42.584;23.366;2024-03-07T10:37:22;5.55;;;4.57;;
66593;SDS011;53450;42.584;23.366;2024-03-07T10:40:12;9.80;;;5.63;;
66593;SDS011;53450;42.584;23.366;2024-03-07T10:42:44;9.68;;;6.28;;
66593;SDS011;53450;42.584;23.366;2024-03-07T10:48:41;9.20;;;6.15;;
66593;SDS011;53450;42.584;23.366;2024-03-07T10:51:21;12.52;;;8.13;;
66593;SDS011;53450;42.584;23.366;2024-03-07T10:54:13;6.72;;;5.22;;
66593;SDS011;53450;42.584;23.366;2024-03-07T10:59:30;4.75;;;3.92;;
66593;SDS011;53450;42.584;23.366;2024-03-07T11:02:41;4.80;;;3.75;;
66593;SDS011;53450;42.584;23.366;2024-03-07T11:05:40;3.65;;;2.92;;
66593;SDS011;53450;42.584;23.366;2024-03-07T11:08:08;4.65;;;3.50;;
66593;SDS011;53450;42.584;23.366;2024-03-07T11:10:41;10.75;;;6.07;;
66593;SDS011;53450;42.584;23.366;2024-03-07T11:13:12;4.70;;;3.40;;
66593;SDS011;53450;42.584;23.366;2024-03-07T11:15:43;4.50;;;3.58;;
66593;SDS011;53450;42.584;23.366;2024-03-07T11:18:12;9.25;;;5.63;;
66593;SDS011;53450;42.584;23.366;2024-03-07T11:20:43;9.73;;;5.22;;
66593;SDS011;53450;42.584;23.366;2024-03-07T11:23:24;7.88;;;5.15;;
66593;SDS011;53450;42.584;23.366;2024-03-07T11:26:12;6.57;;;4.40;;
66593;SDS011;53450;42.584;23.366;2024-03-07T11:28:42;4.63;;;4.22;;
66593;SDS011;53450;42.584;23.366;2024-03-07T11:31:26;5.25;;;4.65;;
66593;SDS011;53450;42.584;23.366;2024-03-07T11:34:11;17.27;;;7.60;;
66593;SDS011;53450;42.584;23.366;2024-03-07T11:36:48;13.50;;;6.00;;
66593;SDS011;53450;42.584;23.366;2024-03-07T11:39:39;18.80;;;8.93;;
66593;SDS011;53450;42.584;23.366;2024-03-07T11:42:08;9.90;;;6.18;;
66593;SDS011;53450;42.584;23.366;2024-03-07T11:44:34;7.68;;;5.55;;
66593;SDS011;53450;42.584;23.366;2024-03-07T11:47:01;11.55;;;5.65;;
66593;SDS011;53450;42.584;23.366;2024-03-07T11:49:36;11.23;;;7.00;;
66593;SDS011;53450;42.584;23.366;2024-03-07T11:52:05;11.25;;;6.30;;
66593;SDS011;53450;42.584;23.366;2024-03-07T11:54:38;13.40;;;7.50;;
66593;SDS011;53450;42.584;23.366;2024-03-07T11:57:20;14.77;;;7.72;;
66593;SDS011;53450;42.584;23.366;2024-03-07T11:59:51;6.28;;;5.65;;
66593;SDS011;53450;42.584;23.366;2024-03-07T12:02:39;7.57;;;6.40;;
66593;SDS011;53450;42.584;23.366;2024-03-07T12:05:22;8.93;;;6.85;;
66593;SDS011;53450;42.584;23.366;2024-03-07T12:07:48;9.95;;;7.13;;
66593;SDS011;53450;42.584;23.366;2024-03-07T12:10:26;10.10;;;5.90;;
66593;SDS011;53450;42.584;23.366;2024-03-07T12:12:53;5.38;;;4.65;;
66593;SDS011;53450;42.584;23.366;2024-03-07T12:15:21;5.97;;;5.00;;
66593;SDS011;53450;42.584;23.366;2024-03-07T12:17:51;7.30;;;4.82;;
66593;SDS011;53450;42.584;23.366;2024-03-07T12:20:54;12.68;;;8.38;;
66593;SDS011;53450;42.584;23.366;2024-03-07T12:23:33;7.95;;;4.30;;
66593;SDS011;53450;42.584;23.366;2024-03-07T12:26:12;6.93;;;4.88;;
66593;SDS011;53450;42.584;23.366;2024-03-07T12:29:06;8.48;;;4.38;;
66593;SDS011;53450;42.584;23.366;2024-03-07T12:31:55;5.45;;;4.45;;
66593;SDS011;53450;42.584;23.366;2024-03-07T12:34:21;4.85;;;4.25;;
66593;SDS011;53450;42.584;23.366;2024-03-07T12:37:03;6.40;;;5.03;;
66593;SDS011;53450;42.584;23.366;2024-03-07T12:39:37;5.60;;;4.20;;
66593;SDS011;53450;42.584;23.366;2024-03-07T12:42:14;4.50;;;4.03;;
66593;SDS011;53450;42.584;23.366;2024-03-07T12:44:50;3.65;;;3.25;;
66593;SDS011;53450;42.584;23.366;2024-03-07T12:47:22;6.68;;;4.38;;
66593;SDS011;53450;42.584;23.366;2024-03-07T12:49:56;6.05;;;3.53;;
66593;SDS011;53450;42.584;23.366;2024-03-07T12:52:26;4.72;;;3.53;;
66593;SDS011;53450;42.584;23.366;2024-03-07T12:54:56;4.70;;;4.13;;
66593;SDS011;53450;42.584;23.366;2024-03-07T12:57:25;7.63;;;3.80;;
66593;SDS011;53450;42.584;23.366;2024-03-07T12:59:55;4.10;;;3.70;;
66593;SDS011;53450;42.584;23.366;2024-03-07T13:02:29;5.28;;;4.30;;
66593;SDS011;53450;42.584;23.366;2024-03-07T13:04:55;6.65;;;4.75;;
66593;SDS011;53450;42.584;23.366;2024-03-07T13:07:31;5.53;;;4.00;;
66593;SDS011;53450;42.584;23.366;2024-03-07T13:09:57;12.20;;;6.95;;
66593;SDS011;53450;42.584;23.366;2024-03-07T13:12:23;4.35;;;3.80;;
66593;SDS011;53450;42.584;23.366;2024-03-07T13:14:59;10.23;;;6.18;;
66593;SDS011;53450;42.584;23.366;2024-03-07T13:17:25;7.82;;;5.38;;
66593;SDS011;53450;42.584;23.366;2024-03-07T13:19:50;5.00;;;3.10;;
66593;SDS011;53450;42.584;23.366;2024-03-07T13:22:35;4.10;;;3.40;;
66593;SDS011;53450;42.584;23.366;2024-03-07T13:25:01;9.68;;;4.95;;
66593;SDS011;53450;42.584;23.366;2024-03-07T13:27:30;7.45;;;5.80;;
66593;SDS011;53450;42.584;23.366;2024-03-07T13:29:55;7.20;;;5.97;;
66593;SDS011;53450;42.584;23.366;2024-03-07T13:32:23;9.52;;;4.57;;
66593;SDS011;53450;42.584;23.366;2024-03-07T13:34:49;14.45;;;7.55;;
66593;SDS011;53450;42.584;23.366;2024-03-07T13:37:17;5.90;;;4.65;;
66593;SDS011;53450;42.584;23.366;2024-03-07T13:39:43;8.82;;;4.50;;
66593;SDS011;53450;42.584;23.366;2024-03-07T13:42:10;4.93;;;3.08;;
66593;SDS011;53450;42.584;23.366;2024-03-07T13:44:36;4.57;;;3.70;;
66593;SDS011;53450;42.584;23.366;2024-03-07T13:47:03;4.55;;;4.18;;
66593;SDS011;53450;42.584;23.366;2024-03-07T13:49:34;4.78;;;3.88;;
66593;SDS011;53450;42.584;23.366;2024-03-07T13:52:05;5.53;;;3.85;;
66593;SDS011;53450;42.584;23.366;2024-03-07T13:54:40;3.67;;;3.20;;
66593;SDS011;53450;42.584;23.366;2024-03-07T14:00:09;4.13;;;3.40;;
66593;SDS011;53450;42.584;23.366;2024-03-07T14:26:37;14.95;;;6.95;;
66593;SDS011;53450;42.584;23.366;2024-03-07T14:32:26;29.20;;;12.68;;
66593;SDS011;53450;42.584;23.366;2024-03-07T14:35:00;13.98;;;7.75;;
66593;SDS011;53450;42.584;23.366;2024-03-07T14:37:55;27.23;;;15.32;;
66593;SDS011;53450;42.584;23.366;2024-03-07T14:40:21;10.95;;;6.03;;
66593;SDS011;53450;42.584;23.366;2024-03-07T14:42:50;21.55;;;13.30;;
66593;SDS011;53450;42.584;23.366;2024-03-07T14:45:19;24.75;;;14.75;;
66593;SDS011;53450;42.584;23.366;2024-03-07T14:47:47;41.47;;;21.83;;
66593;SDS011;53450;42.584;23.366;2024-03-07T14:50:14;10.40;;;6.95;;
66593;SDS011;53450;42.584;23.366;2024-03-07T14:52:44;12.02;;;6.20;;
66593;SDS011;53450;42.584;23.366;2024-03-07T14:55:10;42.15;;;19.02;;
66593;SDS011;53450;42.584;23.366;2024-03-07T14:57:40;56.65;;;17.48;;
66593;SDS011;53450;42.584;23.366;2024-03-07T15:00:10;13.50;;;8.88;;
66593;SDS011;53450;42.584;23.366;2024-03-07T15:02:46;20.52;;;13.13;;
66593;SDS011;53450;42.584;23.366;2024-03-07T15:05:14;17.13;;;11.63;;
66593;SDS011;53450;42.584;23.366;2024-03-07T15:07:40;21.88;;;14.50;;
66593;SDS011;53450;42.584;23.366;2024-03-07T15:10:06;12.45;;;8.10;;
66593;SDS011;53450;42.584;23.366;2024-03-07T15:12:38;17.40;;;11.88;;
66593;SDS011;53450;42.584;23.366;2024-03-07T15:15:04;15.85;;;10.27;;
66593;SDS011;53450;42.584;23.366;2024-03-07T15:17:30;17.40;;;11.77;;
66593;SDS011;53450;42.584;23.366;2024-03-07T15:20:01;10.88;;;7.78;;
66593;SDS011;53450;42.584;23.366;2024-03-07T15:22:34;23.33;;;14.38;;
66593;SDS011;53450;42.584;23.366;2024-03-07T15:25:02;17.65;;;10.43;;
66593;SDS011;53450;42.584;23.366;2024-03-07T15:27:49;15.63;;;9.25;;
66593;SDS011;53450;42.584;23.366;2024-03-07T15:33:19;32.03;;;20.45;;
66593;SDS011;53450;42.584;23.366;2024-03-07T15:36:14;32.40;;;18.90;;
66593;SDS011;53450;42.584;23.366;2024-03-07T15:42:20;29.35;;;17.90;;
66593;SDS011;53450;42.584;23.366;2024-03-07T15:45:18;26.95;;;15.13;;
66593;SDS011;53450;42.584;23.366;2024-03-07T15:47:52;30.35;;;18.40;;
66593;SDS011;53450;42.584;23.366;2024-03-07T15:54:11;46.40;;;18.15;;
66593;SDS011;53450;42.584;23.366;2024-03-07T15:56:57;44.22;;;25.48;;
66593;SDS011;53450;42.584;23.366;2024-03-07T15:59:41;28.98;;;16.50;;
66593;SDS011;53450;42.584;23.366;2024-03-07T16:02:14;35.75;;;20.25;;
66593;SDS011;53450;42.584;23.366;2024-03-07T16:04:39;43.55;;;25.40;;
66593;SDS011;53450;42.584;23.366;2024-03-07T16:07:08;30.02;;;18.08;;